sensor_id;sensor_type;location;lat;lon;timestamp;P1;durP1;ratioP1;P2;durP2;ratioP2
5339;SDS011;2692;48.848;8.924;2022-08-01T00:00:18;3.27;;;1.17;;
5339;SDS011;2692;48.848;8.924;2022-08-01T00:02:43;3.00;;;1.30;;
5339;SDS011;2692;48.848;8.924;2022-08-01T00:05:09;1.60;;;0.80;;
5339;SDS011;2692;48.848;8.924;2022-08-01T00:07:35;1.33;;;0.80;;
5339;SDS011;2692;48.848;8.924;2022-08-01T00:10:02;1.67;;;0.67;;
5339;SDS011;2692;48.848;8.924;2022-08-01T00:12:27;1.67;;;0.70;;
5339;SDS011;2692;48.848;8.924;2022-08-01T00:14:52;1.70;;;0.80;;
5339;SDS011;2692;48.848;8.924;2022-08-01T00:17:17;2.23;;;0.77;;
5339;SDS011;2692;48.848;8.924;2022-08-01T00:19:43;1.93;;;0.80;;
5339;SDS011;2692;48.848;8.924;2022-08-01T00:22:08;1.83;;;0.93;;
5339;SDS011;2692;48.848;8.924;2022-08-01T00:24:33;1.30;;;0.60;;
5339;SDS011;2692;48.848;8.924;2022-08-01T00:26:58;1.80;;;0.97;;
5339;SDS011;2692;48.848;8.924;2022-08-01T00:29:23;2.03;;;1.17;;
5339;SDS011;2692;48.848;8.924;2022-08-01T00:31:49;1.57;;;0.90;;
5339;SDS011;2692;48.848;8.924;2022-08-01T00:34:14;2.17;;;0.90;;
5339;SDS011;2692;48.848;8.924;2022-08-01T00:36:39;1.97;;;0.97;;
5339;SDS011;2692;48.848;8.924;2022-08-01T00:39:04;1.40;;;0.70;;
5339;SDS011;2692;48.848;8.924;2022-08-01T00:41:29;2.70;;;0.90;;
5339;SDS011;2692;48.848;8.924;2022-08-01T00:43:54;2.40;;;0.83;;
5339;SDS011;2692;48.848;8.924;2022-08-01T00:46:20;2.23;;;0.80;;
5339;SDS011;2692;48.848;8.924;2022-08-01T00:48:45;3.60;;;1.00;;
5339;SDS011;2692;48.848;8.924;2022-08-01T00:51:10;2.30;;;1.03;;
5339;SDS011;2692;48.848;8.924;2022-08-01T00:53:35;2.13;;;1.13;;
5339;SDS011;2692;48.848;8.924;2022-08-01T00:56:01;1.30;;;0.80;;
5339;SDS011;2692;48.848;8.924;2022-08-01T00:58:26;2.43;;;0.93;;
5339;SDS011;2692;48.848;8.924;2022-08-01T01:00:53;2.00;;;1.20;;
5339;SDS011;2692;48.848;8.924;2022-08-01T01:03:19;2.23;;;1.07;;
5339;SDS011;2692;48.848;8.924;2022-08-01T01:05:51;1.53;;;0.73;;
5339;SDS011;2692;48.848;8.924;2022-08-01T01:08:22;2.17;;;0.70;;
5339;SDS011;2692;48.848;8.924;2022-08-01T01:10:54;2.07;;;1.17;;
5339;SDS011;2692;48.848;8.924;2022-08-01T01:13:23;3.30;;;1.13;;
5339;SDS011;2692;48.848;8.924;2022-08-01T01:15:59;2.20;;;0.80;;
5339;SDS011;2692;48.848;8.924;2022-08-01T01:18:27;1.43;;;0.80;;
5339;SDS011;2692;48.848;8.924;2022-08-01T01:26:23;2.53;;;0.90;;
5339;SDS011;2692;48.848;8.924;2022-08-01T01:31:16;2.30;;;0.95;;
5339;SDS011;2692;48.848;8.924;2022-08-01T01:33:42;1.87;;;1.00;;
5339;SDS011;2692;48.848;8.924;2022-08-01T01:36:09;1.67;;;0.63;;
5339;SDS011;2692;48.848;8.924;2022-08-01T01:38:36;2.17;;;1.20;;
5339;SDS011;2692;48.848;8.924;2022-08-01T01:41:02;2.27;;;1.07;;
5339;SDS011;2692;48.848;8.924;2022-08-01T01:43:29;1.83;;;0.90;;
5339;SDS011;2692;48.848;8.924;2022-08-01T01:45:54;2.87;;;1.30;;
5339;SDS011;2692;48.848;8.924;2022-08-01T01:48:20;1.70;;;0.80;;
5339;SDS011;2692;48.848;8.924;2022-08-01T01:50:47;1.67;;;0.80;;
5339;SDS011;2692;48.848;8.924;2022-08-01T01:53:13;2.40;;;0.70;;
5339;SDS011;2692;48.848;8.924;2022-08-01T01:55:40;1.93;;;1.00;;
5339;SDS011;2692;48.848;8.924;2022-08-01T01:58:06;3.30;;;1.60;;
5339;SDS011;2692;48.848;8.924;2022-08-01T02:00:32;1.53;;;0.70;;
5339;SDS011;2692;48.848;8.924;2022-08-01T02:02:57;2.77;;;0.87;;
5339;SDS011;2692;48.848;8.924;2022-08-01T02:05:23;2.13;;;1.30;;
5339;SDS011;2692;48.848;8.924;2022-08-01T02:07:50;2.87;;;0.80;;
5339;SDS011;2692;48.848;8.924;2022-08-01T02:10:15;3.33;;;0.90;;
5339;SDS011;2692;48.848;8.924;2022-08-01T02:12:42;1.60;;;0.93;;
5339;SDS011;2692;48.848;8.924;2022-08-01T02:15:10;2.07;;;0.90;;
5339;SDS011;2692;48.848;8.924;2022-08-01T02:17:37;5.10;;;0.90;;
5339;SDS011;2692;48.848;8.924;2022-08-01T02:20:04;2.73;;;1.30;;
5339;SDS011;2692;48.848;8.924;2022-08-01T02:22:34;2.07;;;0.93;;
5339;SDS011;2692;48.848;8.924;2022-08-01T02:25:03;1.73;;;0.70;;
5339;SDS011;2692;48.848;8.924;2022-08-01T02:27:33;1.90;;;1.00;;
5339;SDS011;2692;48.848;8.924;2022-08-01T02:30:03;2.00;;;0.90;;
5339;SDS011;2692;48.848;8.924;2022-08-01T02:32:39;3.07;;;1.57;;
5339;SDS011;2692;48.848;8.924;2022-08-01T02:35:07;1.43;;;0.70;;
5339;SDS011;2692;48.848;8.924;2022-08-01T02:37:35;2.80;;;0.93;;
5339;SDS011;2692;48.848;8.924;2022-08-01T02:40:01;3.50;;;0.83;;
5339;SDS011;2692;48.848;8.924;2022-08-01T02:42:27;2.60;;;1.43;;
5339;SDS011;2692;48.848;8.924;2022-08-01T02:44:53;1.87;;;0.73;;
5339;SDS011;2692;48.848;8.924;2022-08-01T02:47:19;1.87;;;0.97;;
5339;SDS011;2692;48.848;8.924;2022-08-01T02:49:45;2.40;;;0.93;;
5339;SDS011;2692;48.848;8.924;2022-08-01T02:52:13;1.50;;;0.60;;
5339;SDS011;2692;48.848;8.924;2022-08-01T02:54:39;1.43;;;0.80;;
5339;SDS011;2692;48.848;8.924;2022-08-01T02:57:05;1.63;;;0.83;;
5339;SDS011;2692;48.848;8.924;2022-08-01T02:59:31;1.97;;;0.90;;
5339;SDS011;2692;48.848;8.924;2022-08-01T03:01:56;2.63;;;1.10;;
5339;SDS011;2692;48.848;8.924;2022-08-01T03:04:22;3.03;;;0.87;;
5339;SDS011;2692;48.848;8.924;2022-08-01T03:06:48;2.63;;;0.73;;
5339;SDS011;2692;48.848;8.924;2022-08-01T03:09:14;3.33;;;1.20;;
5339;SDS011;2692;48.848;8.924;2022-08-01T03:11:41;2.90;;;0.83;;
5339;SDS011;2692;48.848;8.924;2022-08-01T03:14:08;1.60;;;0.67;;
5339;SDS011;2692;48.848;8.924;2022-08-01T03:16:35;1.10;;;0.50;;
5339;SDS011;2692;48.848;8.924;2022-08-01T03:19:01;1.83;;;0.90;;
5339;SDS011;2692;48.848;8.924;2022-08-01T03:21:27;2.17;;;0.80;;
5339;SDS011;2692;48.848;8.924;2022-08-01T03:23:52;2.67;;;0.80;;
5339;SDS011;2692;48.848;8.924;2022-08-01T03:26:22;1.90;;;0.83;;
5339;SDS011;2692;48.848;8.924;2022-08-01T03:28:48;1.30;;;0.73;;
5339;SDS011;2692;48.848;8.924;2022-08-01T03:31:15;2.40;;;1.07;;
5339;SDS011;2692;48.848;8.924;2022-08-01T03:33:41;2.07;;;0.80;;
5339;SDS011;2692;48.848;8.924;2022-08-01T03:36:07;1.70;;;0.80;;
5339;SDS011;2692;48.848;8.924;2022-08-01T03:38:33;1.70;;;0.87;;
5339;SDS011;2692;48.848;8.924;2022-08-01T03:41:02;2.60;;;1.33;;
5339;SDS011;2692;48.848;8.924;2022-08-01T03:43:38;1.57;;;0.77;;
5339;SDS011;2692;48.848;8.924;2022-08-01T03:46:06;2.40;;;0.90;;
5339;SDS011;2692;48.848;8.924;2022-08-01T03:48:33;1.43;;;0.83;;
5339;SDS011;2692;48.848;8.924;2022-08-01T03:51:01;4.40;;;1.60;;
5339;SDS011;2692;48.848;8.924;2022-08-01T03:53:28;2.40;;;1.77;;
5339;SDS011;2692;48.848;8.924;2022-08-01T03:55:54;4.87;;;2.07;;
5339;SDS011;2692;48.848;8.924;2022-08-01T03:58:20;2.50;;;1.23;;
5339;SDS011;2692;48.848;8.924;2022-08-01T04:00:46;1.83;;;0.93;;
5339;SDS011;2692;48.848;8.924;2022-08-01T04:03:12;4.30;;;1.20;;
5339;SDS011;2692;48.848;8.924;2022-08-01T04:05:40;1.90;;;0.90;;
5339;SDS011;2692;48.848;8.924;2022-08-01T04:08:05;1.10;;;0.67;;
5339;SDS011;2692;48.848;8.924;2022-08-01T04:10:30;3.30;;;0.93;;
5339;SDS011;2692;48.848;8.924;2022-08-01T04:12:56;1.97;;;0.80;;
5339;SDS011;2692;48.848;8.924;2022-08-01T04:15:21;4.27;;;1.17;;
5339;SDS011;2692;48.848;8.924;2022-08-01T04:17:46;1.60;;;0.87;;
5339;SDS011;2692;48.848;8.924;2022-08-01T04:20:11;1.20;;;0.50;;
5339;SDS011;2692;48.848;8.924;2022-08-01T04:22:37;2.23;;;1.17;;
5339;SDS011;2692;48.848;8.924;2022-08-01T04:25:04;1.83;;;0.97;;
5339;SDS011;2692;48.848;8.924;2022-08-01T04:27:35;3.30;;;1.13;;
5339;SDS011;2692;48.848;8.924;2022-08-01T04:30:00;2.33;;;1.30;;
5339;SDS011;2692;48.848;8.924;2022-08-01T04:32:27;1.93;;;0.87;;
5339;SDS011;2692;48.848;8.924;2022-08-01T04:34:52;1.50;;;0.70;;
5339;SDS011;2692;48.848;8.924;2022-08-01T04:37:20;2.43;;;0.73;;
5339;SDS011;2692;48.848;8.924;2022-08-01T04:39:46;2.07;;;1.00;;
5339;SDS011;2692;48.848;8.924;2022-08-01T04:42:11;2.07;;;0.70;;
5339;SDS011;2692;48.848;8.924;2022-08-01T04:44:38;2.70;;;1.47;;
5339;SDS011;2692;48.848;8.924;2022-08-01T04:47:03;1.20;;;0.53;;
5339;SDS011;2692;48.848;8.924;2022-08-01T04:49:33;1.57;;;0.80;;
5339;SDS011;2692;48.848;8.924;2022-08-01T04:51:58;2.23;;;1.07;;
5339;SDS011;2692;48.848;8.924;2022-08-01T04:54:25;1.50;;;1.10;;
5339;SDS011;2692;48.848;8.924;2022-08-01T04:56:50;7.20;;;1.20;;
5339;SDS011;2692;48.848;8.924;2022-08-01T04:59:18;3.57;;;1.23;;
5339;SDS011;2692;48.848;8.924;2022-08-01T05:02:02;5.37;;;1.67;;
5339;SDS011;2692;48.848;8.924;2022-08-01T05:04:27;1.30;;;0.73;;
5339;SDS011;2692;48.848;8.924;2022-08-01T05:06:52;3.87;;;1.23;;
5339;SDS011;2692;48.848;8.924;2022-08-01T05:09:17;2.23;;;1.10;;
5339;SDS011;2692;48.848;8.924;2022-08-01T05:11:43;2.33;;;1.17;;
5339;SDS011;2692;48.848;8.924;2022-08-01T05:14:11;3.00;;;1.23;;
5339;SDS011;2692;48.848;8.924;2022-08-01T05:16:36;2.40;;;1.20;;
5339;SDS011;2692;48.848;8.924;2022-08-01T05:19:01;1.70;;;0.93;;
5339;SDS011;2692;48.848;8.924;2022-08-01T05:21:27;1.30;;;0.83;;
5339;SDS011;2692;48.848;8.924;2022-08-01T05:23:52;1.67;;;1.17;;
5339;SDS011;2692;48.848;8.924;2022-08-01T05:26:17;1.37;;;0.80;;
5339;SDS011;2692;48.848;8.924;2022-08-01T05:28:42;1.70;;;0.73;;
5339;SDS011;2692;48.848;8.924;2022-08-01T05:31:08;1.50;;;0.80;;
5339;SDS011;2692;48.848;8.924;2022-08-01T05:33:36;2.50;;;1.10;;
5339;SDS011;2692;48.848;8.924;2022-08-01T05:36:02;1.83;;;1.23;;
5339;SDS011;2692;48.848;8.924;2022-08-01T05:38:28;5.67;;;1.80;;
5339;SDS011;2692;48.848;8.924;2022-08-01T05:40:53;1.67;;;0.83;;
5339;SDS011;2692;48.848;8.924;2022-08-01T05:43:19;1.30;;;0.70;;
5339;SDS011;2692;48.848;8.924;2022-08-01T05:45:45;2.00;;;0.60;;
5339;SDS011;2692;48.848;8.924;2022-08-01T05:48:10;2.33;;;0.77;;
5339;SDS011;2692;48.848;8.924;2022-08-01T05:50:36;2.43;;;0.90;;
5339;SDS011;2692;48.848;8.924;2022-08-01T05:53:01;1.40;;;0.77;;
5339;SDS011;2692;48.848;8.924;2022-08-01T05:55:27;2.47;;;1.00;;
5339;SDS011;2692;48.848;8.924;2022-08-01T05:57:52;1.83;;;0.70;;
5339;SDS011;2692;48.848;8.924;2022-08-01T06:00:17;6.27;;;0.70;;
5339;SDS011;2692;48.848;8.924;2022-08-01T06:02:43;2.37;;;0.87;;
5339;SDS011;2692;48.848;8.924;2022-08-01T06:05:08;1.03;;;0.47;;
5339;SDS011;2692;48.848;8.924;2022-08-01T06:07:33;6.53;;;1.30;;
5339;SDS011;2692;48.848;8.924;2022-08-01T06:09:59;3.00;;;1.27;;
5339;SDS011;2692;48.848;8.924;2022-08-01T06:12:24;4.93;;;1.07;;
5339;SDS011;2692;48.848;8.924;2022-08-01T06:14:49;1.40;;;0.77;;
5339;SDS011;2692;48.848;8.924;2022-08-01T06:17:14;1.10;;;0.50;;
5339;SDS011;2692;48.848;8.924;2022-08-01T06:19:39;2.37;;;1.23;;
5339;SDS011;2692;48.848;8.924;2022-08-01T06:22:04;3.27;;;1.07;;
5339;SDS011;2692;48.848;8.924;2022-08-01T06:24:30;2.13;;;0.80;;
5339;SDS011;2692;48.848;8.924;2022-08-01T06:26:55;2.23;;;0.53;;
5339;SDS011;2692;48.848;8.924;2022-08-01T06:29:20;1.20;;;0.50;;
5339;SDS011;2692;48.848;8.924;2022-08-01T06:31:45;1.13;;;0.40;;
5339;SDS011;2692;48.848;8.924;2022-08-01T06:34:10;1.57;;;0.60;;
5339;SDS011;2692;48.848;8.924;2022-08-01T06:36:36;1.80;;;0.97;;
5339;SDS011;2692;48.848;8.924;2022-08-01T06:39:01;2.10;;;1.17;;
5339;SDS011;2692;48.848;8.924;2022-08-01T06:41:26;1.73;;;0.90;;
5339;SDS011;2692;48.848;8.924;2022-08-01T06:43:51;3.50;;;1.20;;
5339;SDS011;2692;48.848;8.924;2022-08-01T06:46:16;1.30;;;0.60;;
5339;SDS011;2692;48.848;8.924;2022-08-01T06:48:42;12.43;;;1.00;;
5339;SDS011;2692;48.848;8.924;2022-08-01T06:51:07;1.60;;;0.60;;
5339;SDS011;2692;48.848;8.924;2022-08-01T06:53:33;2.20;;;1.03;;
5339;SDS011;2692;48.848;8.924;2022-08-01T06:55:58;3.20;;;0.90;;
5339;SDS011;2692;48.848;8.924;2022-08-01T06:58:23;1.60;;;0.60;;
5339;SDS011;2692;48.848;8.924;2022-08-01T07:00:48;3.50;;;0.90;;
5339;SDS011;2692;48.848;8.924;2022-08-01T07:03:13;2.10;;;0.90;;
5339;SDS011;2692;48.848;8.924;2022-08-01T07:05:39;1.90;;;0.70;;
5339;SDS011;2692;48.848;8.924;2022-08-01T07:08:04;1.20;;;0.50;;
5339;SDS011;2692;48.848;8.924;2022-08-01T07:10:29;1.33;;;0.60;;
5339;SDS011;2692;48.848;8.924;2022-08-01T07:12:55;2.53;;;0.90;;
5339;SDS011;2692;48.848;8.924;2022-08-01T07:15:20;1.87;;;0.80;;
5339;SDS011;2692;48.848;8.924;2022-08-01T07:17:51;1.23;;;0.50;;
5339;SDS011;2692;48.848;8.924;2022-08-01T07:20:16;1.60;;;0.57;;
5339;SDS011;2692;48.848;8.924;2022-08-01T07:22:41;1.93;;;0.77;;
5339;SDS011;2692;48.848;8.924;2022-08-01T07:25:06;1.33;;;0.63;;
5339;SDS011;2692;48.848;8.924;2022-08-01T07:27:32;1.57;;;0.60;;
5339;SDS011;2692;48.848;8.924;2022-08-01T07:29:57;1.80;;;0.80;;
5339;SDS011;2692;48.848;8.924;2022-08-01T07:32:23;2.10;;;1.00;;
5339;SDS011;2692;48.848;8.924;2022-08-01T07:34:48;1.53;;;0.50;;
5339;SDS011;2692;48.848;8.924;2022-08-01T07:37:13;1.77;;;0.70;;
5339;SDS011;2692;48.848;8.924;2022-08-01T07:39:38;2.97;;;1.10;;
5339;SDS011;2692;48.848;8.924;2022-08-01T07:42:03;1.10;;;0.40;;
5339;SDS011;2692;48.848;8.924;2022-08-01T07:44:29;2.30;;;0.80;;
5339;SDS011;2692;48.848;8.924;2022-08-01T07:46:54;1.20;;;0.50;;
5339;SDS011;2692;48.848;8.924;2022-08-01T07:49:19;3.20;;;1.10;;
5339;SDS011;2692;48.848;8.924;2022-08-01T07:51:46;2.07;;;0.90;;
5339;SDS011;2692;48.848;8.924;2022-08-01T07:54:11;1.30;;;0.70;;
5339;SDS011;2692;48.848;8.924;2022-08-01T07:56:36;1.87;;;0.70;;
5339;SDS011;2692;48.848;8.924;2022-08-01T07:59:02;3.20;;;0.80;;
5339;SDS011;2692;48.848;8.924;2022-08-01T08:01:27;4.23;;;1.13;;
5339;SDS011;2692;48.848;8.924;2022-08-01T08:03:52;1.93;;;0.73;;
5339;SDS011;2692;48.848;8.924;2022-08-01T08:06:17;2.07;;;0.63;;
5339;SDS011;2692;48.848;8.924;2022-08-01T08:08:42;1.60;;;0.70;;
5339;SDS011;2692;48.848;8.924;2022-08-01T08:11:08;3.40;;;0.80;;
5339;SDS011;2692;48.848;8.924;2022-08-01T08:13:33;2.10;;;0.97;;
5339;SDS011;2692;48.848;8.924;2022-08-01T08:15:58;5.30;;;1.00;;
5339;SDS011;2692;48.848;8.924;2022-08-01T08:18:24;2.17;;;0.97;;
5339;SDS011;2692;48.848;8.924;2022-08-01T08:20:49;1.50;;;0.90;;
5339;SDS011;2692;48.848;8.924;2022-08-01T08:23:15;2.23;;;1.30;;
5339;SDS011;2692;48.848;8.924;2022-08-01T08:25:59;2.13;;;1.17;;
5339;SDS011;2692;48.848;8.924;2022-08-01T08:28:24;6.47;;;1.53;;
5339;SDS011;2692;48.848;8.924;2022-08-01T08:30:49;5.60;;;1.87;;
5339;SDS011;2692;48.848;8.924;2022-08-01T08:33:14;3.07;;;1.80;;
5339;SDS011;2692;48.848;8.924;2022-08-01T08:35:40;3.30;;;2.07;;
5339;SDS011;2692;48.848;8.924;2022-08-01T08:38:06;6.60;;;2.60;;
5339;SDS011;2692;48.848;8.924;2022-08-01T08:40:31;6.10;;;2.00;;
5339;SDS011;2692;48.848;8.924;2022-08-01T08:42:58;6.53;;;3.07;;
5339;SDS011;2692;48.848;8.924;2022-08-01T08:45:24;3.00;;;1.63;;
5339;SDS011;2692;48.848;8.924;2022-08-01T08:47:49;2.80;;;1.97;;
5339;SDS011;2692;48.848;8.924;2022-08-01T08:50:15;4.77;;;3.03;;
5339;SDS011;2692;48.848;8.924;2022-08-01T08:52:41;3.87;;;2.60;;
5339;SDS011;2692;48.848;8.924;2022-08-01T08:55:08;4.73;;;2.73;;
5339;SDS011;2692;48.848;8.924;2022-08-01T08:57:33;4.17;;;2.77;;
5339;SDS011;2692;48.848;8.924;2022-08-01T08:59:59;6.57;;;2.67;;
5339;SDS011;2692;48.848;8.924;2022-08-01T09:02:24;4.77;;;3.13;;
5339;SDS011;2692;48.848;8.924;2022-08-01T09:04:49;5.37;;;2.50;;
5339;SDS011;2692;48.848;8.924;2022-08-01T09:07:15;5.70;;;3.37;;
5339;SDS011;2692;48.848;8.924;2022-08-01T09:09:40;3.40;;;2.30;;
5339;SDS011;2692;48.848;8.924;2022-08-01T09:12:05;6.93;;;2.47;;
5339;SDS011;2692;48.848;8.924;2022-08-01T09:14:31;3.03;;;1.60;;
5339;SDS011;2692;48.848;8.924;2022-08-01T09:17:03;3.13;;;1.20;;
5339;SDS011;2692;48.848;8.924;2022-08-01T09:19:38;2.70;;;1.60;;
5339;SDS011;2692;48.848;8.924;2022-08-01T09:22:07;2.50;;;1.30;;
5339;SDS011;2692;48.848;8.924;2022-08-01T09:24:34;3.70;;;1.43;;
5339;SDS011;2692;48.848;8.924;2022-08-01T09:26:59;2.37;;;1.40;;
5339;SDS011;2692;48.848;8.924;2022-08-01T09:29:26;2.77;;;1.20;;
5339;SDS011;2692;48.848;8.924;2022-08-01T09:31:51;2.60;;;1.40;;
5339;SDS011;2692;48.848;8.924;2022-08-01T09:34:24;1.80;;;0.73;;
5339;SDS011;2692;48.848;8.924;2022-08-01T09:36:59;2.20;;;1.33;;
5339;SDS011;2692;48.848;8.924;2022-08-01T09:39:26;1.57;;;0.80;;
5339;SDS011;2692;48.848;8.924;2022-08-01T09:41:52;1.70;;;0.73;;
5339;SDS011;2692;48.848;8.924;2022-08-01T09:44:18;2.33;;;1.00;;
5339;SDS011;2692;48.848;8.924;2022-08-01T09:46:53;2.37;;;1.00;;
5339;SDS011;2692;48.848;8.924;2022-08-01T09:49:31;2.17;;;1.10;;
5339;SDS011;2692;48.848;8.924;2022-08-01T09:51:57;2.50;;;1.27;;
5339;SDS011;2692;48.848;8.924;2022-08-01T09:54:33;1.80;;;1.10;;
5339;SDS011;2692;48.848;8.924;2022-08-01T09:57:12;3.00;;;0.80;;
5339;SDS011;2692;48.848;8.924;2022-08-01T09:59:38;2.00;;;1.00;;
5339;SDS011;2692;48.848;8.924;2022-08-01T10:02:06;4.80;;;1.17;;
5339;SDS011;2692;48.848;8.924;2022-08-01T10:04:32;5.00;;;1.50;;
5339;SDS011;2692;48.848;8.924;2022-08-01T10:07:05;5.13;;;1.93;;
5339;SDS011;2692;48.848;8.924;2022-08-01T10:09:32;3.17;;;2.00;;
5339;SDS011;2692;48.848;8.924;2022-08-01T10:11:58;3.70;;;2.30;;
5339;SDS011;2692;48.848;8.924;2022-08-01T10:14:24;2.50;;;1.70;;
5339;SDS011;2692;48.848;8.924;2022-08-01T10:16:49;4.30;;;2.30;;
5339;SDS011;2692;48.848;8.924;2022-08-01T10:19:16;5.10;;;2.63;;
5339;SDS011;2692;48.848;8.924;2022-08-01T10:21:41;5.50;;;1.87;;
5339;SDS011;2692;48.848;8.924;2022-08-01T10:24:09;5.20;;;2.70;;
5339;SDS011;2692;48.848;8.924;2022-08-01T10:26:35;3.00;;;1.80;;
5339;SDS011;2692;48.848;8.924;2022-08-01T10:29:01;4.00;;;1.40;;
5339;SDS011;2692;48.848;8.924;2022-08-01T10:31:27;3.87;;;1.57;;
5339;SDS011;2692;48.848;8.924;2022-08-01T10:33:57;3.63;;;1.50;;
5339;SDS011;2692;48.848;8.924;2022-08-01T10:36:22;4.10;;;2.03;;
5339;SDS011;2692;48.848;8.924;2022-08-01T10:38:48;2.80;;;1.40;;
5339;SDS011;2692;48.848;8.924;2022-08-01T10:41:13;2.40;;;1.20;;
5339;SDS011;2692;48.848;8.924;2022-08-01T10:43:42;2.30;;;1.10;;
5339;SDS011;2692;48.848;8.924;2022-08-01T10:46:07;3.17;;;1.73;;
5339;SDS011;2692;48.848;8.924;2022-08-01T10:48:36;2.77;;;1.47;;
5339;SDS011;2692;48.848;8.924;2022-08-01T10:51:04;2.97;;;1.30;;
5339;SDS011;2692;48.848;8.924;2022-08-01T10:53:29;2.60;;;1.17;;
5339;SDS011;2692;48.848;8.924;2022-08-01T10:58:31;2.38;;;1.02;;
5339;SDS011;2692;48.848;8.924;2022-08-01T11:03:42;1.92;;;1.00;;
5339;SDS011;2692;48.848;8.924;2022-08-01T11:06:15;2.10;;;1.40;;
5339;SDS011;2692;48.848;8.924;2022-08-01T11:08:41;2.80;;;1.53;;
5339;SDS011;2692;48.848;8.924;2022-08-01T11:11:07;2.00;;;1.20;;
5339;SDS011;2692;48.848;8.924;2022-08-01T11:16:36;3.33;;;1.53;;
5339;SDS011;2692;48.848;8.924;2022-08-01T11:19:03;3.10;;;1.53;;
5339;SDS011;2692;48.848;8.924;2022-08-01T11:24:12;3.00;;;1.27;;
5339;SDS011;2692;48.848;8.924;2022-08-01T11:26:37;1.77;;;0.97;;
5339;SDS011;2692;48.848;8.924;2022-08-01T11:29:20;1.80;;;0.80;;
5339;SDS011;2692;48.848;8.924;2022-08-01T11:31:45;3.07;;;1.30;;
5339;SDS011;2692;48.848;8.924;2022-08-01T11:34:11;3.33;;;1.40;;
5339;SDS011;2692;48.848;8.924;2022-08-01T11:36:36;2.27;;;0.90;;
5339;SDS011;2692;48.848;8.924;2022-08-01T11:41:30;3.67;;;1.23;;
5339;SDS011;2692;48.848;8.924;2022-08-01T11:49:25;2.70;;;1.23;;
5339;SDS011;2692;48.848;8.924;2022-08-01T11:51:56;3.40;;;1.30;;
5339;SDS011;2692;48.848;8.924;2022-08-01T11:54:24;4.93;;;1.10;;
5339;SDS011;2692;48.848;8.924;2022-08-01T11:56:50;1.90;;;0.83;;
5339;SDS011;2692;48.848;8.924;2022-08-01T11:59:18;4.30;;;1.40;;
5339;SDS011;2692;48.848;8.924;2022-08-01T12:01:44;2.00;;;0.80;;
5339;SDS011;2692;48.848;8.924;2022-08-01T12:04:09;2.07;;;1.03;;
5339;SDS011;2692;48.848;8.924;2022-08-01T12:06:34;3.83;;;1.10;;
5339;SDS011;2692;48.848;8.924;2022-08-01T12:09:16;3.17;;;1.30;;
5339;SDS011;2692;48.848;8.924;2022-08-01T12:11:41;2.30;;;1.20;;
5339;SDS011;2692;48.848;8.924;2022-08-01T12:14:06;2.13;;;1.00;;
5339;SDS011;2692;48.848;8.924;2022-08-01T12:16:31;2.30;;;0.93;;
5339;SDS011;2692;48.848;8.924;2022-08-01T12:18:57;2.37;;;0.90;;
5339;SDS011;2692;48.848;8.924;2022-08-01T12:21:22;3.10;;;0.97;;
5339;SDS011;2692;48.848;8.924;2022-08-01T12:23:59;2.40;;;1.10;;
5339;SDS011;2692;48.848;8.924;2022-08-01T12:26:38;2.10;;;0.90;;
5339;SDS011;2692;48.848;8.924;2022-08-01T12:29:03;1.77;;;0.67;;
5339;SDS011;2692;48.848;8.924;2022-08-01T12:31:32;4.10;;;1.43;;
5339;SDS011;2692;48.848;8.924;2022-08-01T12:33:57;2.20;;;0.90;;
5339;SDS011;2692;48.848;8.924;2022-08-01T12:36:29;4.07;;;1.40;;
5339;SDS011;2692;48.848;8.924;2022-08-01T12:38:54;2.37;;;1.20;;
5339;SDS011;2692;48.848;8.924;2022-08-01T12:41:21;2.30;;;1.30;;
5339;SDS011;2692;48.848;8.924;2022-08-01T12:43:47;2.80;;;1.07;;
5339;SDS011;2692;48.848;8.924;2022-08-01T12:46:12;1.90;;;0.93;;
5339;SDS011;2692;48.848;8.924;2022-08-01T12:48:41;2.60;;;1.20;;
5339;SDS011;2692;48.848;8.924;2022-08-01T12:51:06;1.70;;;0.83;;
5339;SDS011;2692;48.848;8.924;2022-08-01T12:53:34;2.87;;;0.90;;
5339;SDS011;2692;48.848;8.924;2022-08-01T12:55:59;3.23;;;1.20;;
5339;SDS011;2692;48.848;8.924;2022-08-01T12:58:30;2.00;;;1.10;;
5339;SDS011;2692;48.848;8.924;2022-08-01T13:01:02;3.97;;;1.10;;
5339;SDS011;2692;48.848;8.924;2022-08-01T13:03:28;2.27;;;1.10;;
5339;SDS011;2692;48.848;8.924;2022-08-01T13:05:54;1.53;;;0.73;;
5339;SDS011;2692;48.848;8.924;2022-08-01T13:08:21;3.70;;;1.20;;
5339;SDS011;2692;48.848;8.924;2022-08-01T13:10:46;3.27;;;1.53;;
5339;SDS011;2692;48.848;8.924;2022-08-01T13:13:13;2.00;;;1.00;;
5339;SDS011;2692;48.848;8.924;2022-08-01T13:15:39;2.13;;;1.07;;
5339;SDS011;2692;48.848;8.924;2022-08-01T13:20:48;4.70;;;1.37;;
5339;SDS011;2692;48.848;8.924;2022-08-01T13:23:14;4.20;;;1.27;;
5339;SDS011;2692;48.848;8.924;2022-08-01T13:25:47;1.93;;;1.10;;
5339;SDS011;2692;48.848;8.924;2022-08-01T13:28:16;2.40;;;1.13;;
5339;SDS011;2692;48.848;8.924;2022-08-01T13:30:50;1.80;;;0.87;;
5339;SDS011;2692;48.848;8.924;2022-08-01T13:33:15;2.60;;;1.50;;
5339;SDS011;2692;48.848;8.924;2022-08-01T13:35:40;2.17;;;0.90;;
5339;SDS011;2692;48.848;8.924;2022-08-01T13:38:06;2.23;;;0.93;;
5339;SDS011;2692;48.848;8.924;2022-08-01T13:40:31;2.00;;;0.97;;
5339;SDS011;2692;48.848;8.924;2022-08-01T13:42:57;2.07;;;0.90;;
5339;SDS011;2692;48.848;8.924;2022-08-01T13:45:22;3.60;;;0.97;;
5339;SDS011;2692;48.848;8.924;2022-08-01T13:47:48;1.70;;;0.90;;
5339;SDS011;2692;48.848;8.924;2022-08-01T13:50:13;2.30;;;1.00;;
5339;SDS011;2692;48.848;8.924;2022-08-01T13:52:38;2.53;;;1.10;;
5339;SDS011;2692;48.848;8.924;2022-08-01T13:55:04;3.57;;;0.93;;
5339;SDS011;2692;48.848;8.924;2022-08-01T13:57:29;2.40;;;0.97;;
5339;SDS011;2692;48.848;8.924;2022-08-01T13:59:54;1.40;;;0.60;;
5339;SDS011;2692;48.848;8.924;2022-08-01T14:02:20;1.97;;;0.97;;
5339;SDS011;2692;48.848;8.924;2022-08-01T14:04:45;3.80;;;1.23;;
5339;SDS011;2692;48.848;8.924;2022-08-01T14:07:10;1.97;;;0.90;;
5339;SDS011;2692;48.848;8.924;2022-08-01T14:09:35;3.13;;;0.90;;
5339;SDS011;2692;48.848;8.924;2022-08-01T14:12:00;1.97;;;0.90;;
5339;SDS011;2692;48.848;8.924;2022-08-01T14:14:26;2.37;;;1.03;;
5339;SDS011;2692;48.848;8.924;2022-08-01T14:16:51;6.30;;;1.63;;
5339;SDS011;2692;48.848;8.924;2022-08-01T14:19:16;2.60;;;1.17;;
5339;SDS011;2692;48.848;8.924;2022-08-01T14:21:42;2.70;;;1.33;;
5339;SDS011;2692;48.848;8.924;2022-08-01T14:24:08;1.80;;;0.90;;
5339;SDS011;2692;48.848;8.924;2022-08-01T14:26:34;1.90;;;0.80;;
5339;SDS011;2692;48.848;8.924;2022-08-01T14:28:59;3.80;;;1.30;;
5339;SDS011;2692;48.848;8.924;2022-08-01T14:31:24;2.07;;;0.90;;
5339;SDS011;2692;48.848;8.924;2022-08-01T14:33:50;3.83;;;1.13;;
5339;SDS011;2692;48.848;8.924;2022-08-01T14:36:15;2.00;;;0.80;;
5339;SDS011;2692;48.848;8.924;2022-08-01T14:38:40;5.63;;;1.27;;
5339;SDS011;2692;48.848;8.924;2022-08-01T14:41:05;1.87;;;0.87;;
5339;SDS011;2692;48.848;8.924;2022-08-01T14:43:30;1.50;;;0.60;;
5339;SDS011;2692;48.848;8.924;2022-08-01T14:45:57;2.43;;;1.33;;
5339;SDS011;2692;48.848;8.924;2022-08-01T14:48:22;2.60;;;1.00;;
5339;SDS011;2692;48.848;8.924;2022-08-01T14:50:47;1.80;;;0.90;;
5339;SDS011;2692;48.848;8.924;2022-08-01T14:53:13;1.50;;;0.80;;
5339;SDS011;2692;48.848;8.924;2022-08-01T14:55:38;2.80;;;0.93;;
5339;SDS011;2692;48.848;8.924;2022-08-01T14:58:03;1.50;;;0.60;;
5339;SDS011;2692;48.848;8.924;2022-08-01T15:00:28;2.30;;;1.00;;
5339;SDS011;2692;48.848;8.924;2022-08-01T15:02:53;2.83;;;1.00;;
5339;SDS011;2692;48.848;8.924;2022-08-01T15:05:19;2.20;;;1.00;;
5339;SDS011;2692;48.848;8.924;2022-08-01T15:07:44;2.50;;;1.00;;
5339;SDS011;2692;48.848;8.924;2022-08-01T15:10:09;2.20;;;1.10;;
5339;SDS011;2692;48.848;8.924;2022-08-01T15:12:34;1.93;;;0.70;;
5339;SDS011;2692;48.848;8.924;2022-08-01T15:15:00;2.80;;;1.00;;
5339;SDS011;2692;48.848;8.924;2022-08-01T15:17:26;2.00;;;1.03;;
5339;SDS011;2692;48.848;8.924;2022-08-01T15:19:54;1.87;;;0.93;;
5339;SDS011;2692;48.848;8.924;2022-08-01T15:22:20;2.20;;;0.80;;
5339;SDS011;2692;48.848;8.924;2022-08-01T15:24:49;1.20;;;0.50;;
5339;SDS011;2692;48.848;8.924;2022-08-01T15:27:14;1.70;;;0.90;;
5339;SDS011;2692;48.848;8.924;2022-08-01T15:29:40;2.03;;;0.90;;
5339;SDS011;2692;48.848;8.924;2022-08-01T15:32:05;1.70;;;0.70;;
5339;SDS011;2692;48.848;8.924;2022-08-01T15:34:31;2.03;;;0.90;;
5339;SDS011;2692;48.848;8.924;2022-08-01T15:36:56;1.87;;;0.60;;
5339;SDS011;2692;48.848;8.924;2022-08-01T15:39:22;1.40;;;0.60;;